createdAt,value
2023-02-13T00:00:45.466Z,2.08
2023-02-13T00:04:48.045Z,1.98
2023-02-13T00:08:50.650Z,3.55
2023-02-13T00:12:54.747Z,4.68
2023-02-13T00:16:57.413Z,2.17
2023-02-13T00:21:01.501Z,1.67
2023-02-13T00:25:04.482Z,1.58
2023-02-13T00:29:08.412Z,3.88
2023-02-13T00:33:10.997Z,1.58
2023-02-13T00:37:13.602Z,2.83
2023-02-13T00:41:17.662Z,1.75
2023-02-13T00:45:21.626Z,1.77
2023-02-13T00:49:24.209Z,1.20
2023-02-13T00:53:27.312Z,1.35
2023-02-13T00:57:31.787Z,1.30
2023-02-13T01:01:35.828Z,2.97
2023-02-13T01:05:38.460Z,2.60
2023-02-13T01:09:41.155Z,1.67
2023-02-13T01:13:43.732Z,1.73
2023-02-13T01:17:47.822Z,2.33
2023-02-13T01:21:50.456Z,1.52
2023-02-13T01:25:53.059Z,5.15
2023-02-13T01:29:55.790Z,2.17
2023-02-13T01:34:00.150Z,1.65
2023-02-13T01:38:02.745Z,0.82
2023-02-13T01:42:06.493Z,2.72
2023-02-13T01:46:09.372Z,3.70
2023-02-13T01:50:19.026Z,1.15
2023-02-13T01:54:30.906Z,0.60
2023-02-13T01:58:37.050Z,1.63
2023-02-13T02:02:45.171Z,3.53
2023-02-13T02:06:52.992Z,0.77
2023-02-13T02:10:59.276Z,1.42
2023-02-13T02:15:04.335Z,1.90
2023-02-13T02:19:13.808Z,0.63
2023-02-13T02:23:47.604Z,1.30
2023-02-13T02:28:29.075Z,1.25
2023-02-13T02:33:04.165Z,1.88
2023-02-13T02:37:18.021Z,0.95
2023-02-13T02:41:45.480Z,1.55
2023-02-13T02:45:55.744Z,0.88
2023-02-13T02:50:13.308Z,1.63
2023-02-13T02:54:52.462Z,1.27
2023-02-13T02:59:13.295Z,2.60
2023-02-13T03:03:36.699Z,0.88
2023-02-13T03:07:40.673Z,0.93
2023-02-13T03:12:05.669Z,1.48
2023-02-13T03:16:31.007Z,2.47
2023-02-13T03:21:01.237Z,2.33
2023-02-13T03:25:12.361Z,1.80
2023-02-13T03:29:43.516Z,2.28
2023-02-13T03:33:58.114Z,1.45
2023-02-13T03:38:09.306Z,4.05
2023-02-13T03:42:21.840Z,2.45
2023-02-13T03:46:27.179Z,2.25
2023-02-13T03:50:30.251Z,1.05
2023-02-13T03:54:57.097Z,2.45
2023-02-13T03:59:18.613Z,3.03
2023-02-13T04:03:26.966Z,1.15
2023-02-13T04:07:33.230Z,1.33
2023-02-13T04:11:40.109Z,2.08
2023-02-13T04:15:49.132Z,6.28
2023-02-13T04:19:52.338Z,2.03
2023-02-13T04:23:54.891Z,1.95
2023-02-13T04:27:57.466Z,1.83
2023-02-13T04:32:01.460Z,1.42
2023-02-13T04:36:04.506Z,1.30
2023-02-13T04:40:07.973Z,2.45
2023-02-13T04:44:10.538Z,1.88
2023-02-13T04:48:14.436Z,1.55
2023-02-13T04:52:17.026Z,1.23
2023-02-13T04:56:20.056Z,1.42
2023-02-13T05:00:23.713Z,2.63
2023-02-13T05:04:28.951Z,0.77
2023-02-13T05:08:31.580Z,1.10
2023-02-13T05:12:34.185Z,1.38
2023-02-13T05:16:37.192Z,0.68
2023-02-13T05:20:41.089Z,4.18
2023-02-13T05:24:43.670Z,2.10
2023-02-13T05:29:03.944Z,1.95
2023-02-13T05:33:06.520Z,0.93
2023-02-13T05:37:10.500Z,3.15
2023-02-13T05:41:13.587Z,0.63
2023-02-13T05:45:16.232Z,2.80
2023-02-13T05:49:18.900Z,2.33
2023-02-13T05:53:22.906Z,2.03
2023-02-13T05:57:25.507Z,1.35
2023-02-13T06:01:28.219Z,5.05
2023-02-13T06:05:30.845Z,1.27
2023-02-13T06:09:34.756Z,2.67
2023-02-13T06:13:40.584Z,2.15
2023-02-13T06:17:43.217Z,4.28
2023-02-13T06:21:45.849Z,1.33
2023-02-13T06:25:49.832Z,2.33
2023-02-13T06:29:52.690Z,3.28
2023-02-13T06:33:55.284Z,2.22
2023-02-13T06:37:57.850Z,1.17
2023-02-13T06:42:01.792Z,1.70
2023-02-13T06:46:06.193Z,1.60
2023-02-13T06:50:09.378Z,1.15
2023-02-13T06:54:11.978Z,1.58
2023-02-13T06:58:15.931Z,1.02
2023-02-13T07:02:18.607Z,2.42
2023-02-13T07:06:21.767Z,1.52
2023-02-13T07:10:24.388Z,2.50
2023-02-13T07:14:28.314Z,3.13
2023-02-13T07:18:30.956Z,2.67
2023-02-13T07:22:34.052Z,3.13
2023-02-13T07:26:36.619Z,1.35
2023-02-13T07:30:40.617Z,3.17
2023-02-13T07:34:59.608Z,3.22
2023-02-13T07:39:03.748Z,2.00
2023-02-13T07:43:06.415Z,2.00
2023-02-13T07:47:10.333Z,4.05
2023-02-13T07:51:12.915Z,4.40
2023-02-13T07:55:15.650Z,1.58
2023-02-13T07:59:18.258Z,1.73
2023-02-13T08:03:22.216Z,5.20
2023-02-13T08:07:25.291Z,1.70
2023-02-13T08:11:50.513Z,2.28
2023-02-13T08:15:53.161Z,1.73
2023-02-13T08:19:57.049Z,2.53
2023-02-13T08:23:59.956Z,6.72
2023-02-13T08:28:03.373Z,3.28
2023-02-13T08:32:06.234Z,2.78
2023-02-13T08:36:10.804Z,2.42
2023-02-13T08:40:14.148Z,5.93
2023-02-13T08:44:16.745Z,9.57
2023-02-13T08:48:19.450Z,3.53
2023-02-13T08:52:23.382Z,3.35
2023-02-13T08:56:25.942Z,2.38
2023-02-13T09:00:28.606Z,11.95
2023-02-13T09:04:31.331Z,1.20
2023-02-13T09:08:36.148Z,4.72
2023-02-13T09:12:39.265Z,4.18
2023-02-13T09:16:41.908Z,6.50
2023-02-13T09:20:44.514Z,7.28
2023-02-13T09:24:48.394Z,6.10
2023-02-13T09:28:51.002Z,1.85
2023-02-13T09:32:55.282Z,0.50
2023-02-13T09:36:57.893Z,1.42
2023-02-13T09:41:04.328Z,1.58
2023-02-13T09:45:09.198Z,0.98
2023-02-13T09:49:16.781Z,2.20
2023-02-13T09:53:24.304Z,4.60
2023-02-13T09:57:32.172Z,3.47
2023-02-13T10:01:40.602Z,6.20
2023-02-13T10:05:57.315Z,4.80
2023-02-13T10:10:04.631Z,2.60
2023-02-13T10:14:16.227Z,2.90
2023-02-13T10:18:22.543Z,6.57
2023-02-13T10:22:30.580Z,3.10
2023-02-13T10:26:43.481Z,3.25
2023-02-13T10:30:53.190Z,2.78
2023-02-13T10:34:59.636Z,1.90
2023-02-13T10:39:13.452Z,3.08
2023-02-13T10:43:21.517Z,3.55
2023-02-13T10:47:38.567Z,4.00
2023-02-13T10:51:45.824Z,3.53
2023-02-13T10:56:08.022Z,3.33
2023-02-13T11:00:16.240Z,1.77
2023-02-13T11:04:21.264Z,3.45
2023-02-13T11:08:33.858Z,2.80
2023-02-13T11:12:36.540Z,3.42
2023-02-13T11:16:42.423Z,3.90
2023-02-13T11:20:48.835Z,2.63
2023-02-13T11:24:54.535Z,4.35
2023-02-13T11:29:02.769Z,4.35
2023-02-13T11:33:23.678Z,6.57
2023-02-13T11:37:29.897Z,2.42
2023-02-13T11:41:37.960Z,1.95
2023-02-13T11:45:40.722Z,2.75
2023-02-13T11:49:47.177Z,4.18
2023-02-13T11:53:51.188Z,2.85
2023-02-13T11:57:58.404Z,4.93
2023-02-13T12:02:14.508Z,2.90
2023-02-13T12:06:18.517Z,3.20
2023-02-13T12:10:25.826Z,2.70
2023-02-13T12:14:33.694Z,5.72
2023-02-13T12:18:39.606Z,3.70
2023-02-13T12:22:58.112Z,4.88
2023-02-13T12:27:09.067Z,3.33
2023-02-13T12:31:31.364Z,6.93
2023-02-13T12:35:46.370Z,5.18
2023-02-13T12:39:59.556Z,2.63
2023-02-13T12:44:26.139Z,2.05
2023-02-13T12:48:40.141Z,1.70
2023-02-13T12:52:51.411Z,2.38
2023-02-13T12:57:07.105Z,4.57
2023-02-13T13:01:21.278Z,2.47
2023-02-13T13:05:32.280Z,2.45
2023-02-13T13:10:16.128Z,3.72
2023-02-13T13:14:28.151Z,3.20
2023-02-13T13:18:46.476Z,2.58
2023-02-13T13:22:55.135Z,2.72
2023-02-13T13:26:59.103Z,5.13
2023-02-13T13:31:02.838Z,2.10
2023-02-13T13:35:13.881Z,3.85
2023-02-13T13:39:28.950Z,1.20
2023-02-13T13:43:36.717Z,2.58
2023-02-13T13:47:50.103Z,2.65
2023-02-13T13:51:54.072Z,3.80
2023-02-13T13:56:09.360Z,5.75
2023-02-13T14:00:29.078Z,2.80
2023-02-13T14:04:40.471Z,2.97
2023-02-13T14:09:08.092Z,2.08
2023-02-13T14:13:10.710Z,2.00
2023-02-13T14:17:15.661Z,1.88
2023-02-13T14:21:24.637Z,1.80
2023-02-13T14:25:29.607Z,3.17
2023-02-13T14:29:35.112Z,2.67
2023-02-13T14:33:37.799Z,1.85
2023-02-13T14:37:51.460Z,3.22
2023-02-13T14:42:02.881Z,3.40
2023-02-13T14:46:15.089Z,3.17
2023-02-13T14:50:24.949Z,6.55
2023-02-13T14:54:30.636Z,2.17
2023-02-13T14:58:38.034Z,8.73
2023-02-13T15:02:46.894Z,2.30
2023-02-13T15:06:51.332Z,7.38
2023-02-13T15:10:55.919Z,8.55
2023-02-13T15:15:02.295Z,3.53
2023-02-13T15:19:04.949Z,3.15
2023-02-13T15:23:09.441Z,3.92
2023-02-13T15:27:20.474Z,4.38
2023-02-13T15:31:25.979Z,2.95
2023-02-13T15:35:31.085Z,8.18
2023-02-13T15:39:33.759Z,8.80
2023-02-13T15:43:39.313Z,3.75
2023-02-13T15:47:44.946Z,5.13
2023-02-13T15:51:48.856Z,2.33
2023-02-13T15:55:58.438Z,2.60
2023-02-13T16:00:02.529Z,4.40
2023-02-13T16:04:10.589Z,5.90
2023-02-13T16:08:31.875Z,5.85
2023-02-13T16:12:34.561Z,7.32
2023-02-13T16:16:45.192Z,8.05
2023-02-13T16:20:55.080Z,6.20
2023-02-13T16:25:07.945Z,7.13
2023-02-13T16:33:28.350Z,10.30
2023-02-13T16:37:34.238Z,6.15
2023-02-13T16:41:36.913Z,9.93
2023-02-13T16:45:40.019Z,5.68
2023-02-13T16:49:42.656Z,8.35
2023-02-13T16:53:46.660Z,7.93
2023-02-13T16:57:49.561Z,7.20
2023-02-13T17:02:17.789Z,9.45
2023-02-13T17:06:20.376Z,7.43
2023-02-13T17:10:27.386Z,6.72
2023-02-13T17:14:30.031Z,10.35
2023-02-13T17:18:32.672Z,5.82
2023-02-13T17:22:38.513Z,6.38
2023-02-13T17:26:42.524Z,5.38
2023-02-13T17:30:46.122Z,8.85
2023-02-13T17:34:48.876Z,5.88
2023-02-13T17:38:51.545Z,6.90
2023-02-13T17:42:57.035Z,7.57
2023-02-13T17:46:59.672Z,7.13
2023-02-13T17:51:03.000Z,7.97
2023-02-13T17:55:06.487Z,6.68
2023-02-13T17:59:10.540Z,5.93
2023-02-13T18:03:13.829Z,6.93
2023-02-13T18:07:18.067Z,7.03
2023-02-13T18:11:20.665Z,6.55
2023-02-13T18:15:25.415Z,9.50
2023-02-13T18:19:28.574Z,7.43
2023-02-13T18:23:31.184Z,8.43
2023-02-13T18:27:34.073Z,8.32
2023-02-13T18:31:38.114Z,8.95
2023-02-13T18:35:41.080Z,5.95
2023-02-13T18:39:43.974Z,7.22
2023-02-13T18:43:46.786Z,6.55
2023-02-13T18:47:50.897Z,10.32
2023-02-13T18:51:54.247Z,12.82
2023-02-13T18:56:01.702Z,11.57
2023-02-13T19:00:06.133Z,5.90
2023-02-13T19:04:11.340Z,7.05
2023-02-13T19:08:15.040Z,7.20
2023-02-13T19:12:17.689Z,4.47
2023-02-13T19:16:20.799Z,6.05
2023-02-13T19:20:25.148Z,5.85
2023-02-13T19:24:27.867Z,7.40
2023-02-13T19:28:31.181Z,5.82
2023-02-13T19:32:33.817Z,7.75
2023-02-13T19:36:37.837Z,7.20
2023-02-13T19:40:40.401Z,6.38
2023-02-13T19:44:43.003Z,7.40
2023-02-13T19:48:50.560Z,7.07
2023-02-13T19:52:54.512Z,7.72
2023-02-13T19:57:00.336Z,5.50
2023-02-13T20:01:08.283Z,4.35
2023-02-13T20:05:10.963Z,5.40
2023-02-13T20:09:15.250Z,12.57
2023-02-13T20:13:17.841Z,8.80
2023-02-13T20:17:22.683Z,8.13
2023-02-13T20:21:25.335Z,7.57
2023-02-13T20:25:32.160Z,6.80
2023-02-13T20:29:37.170Z,9.70
2023-02-13T20:33:40.317Z,11.82
2023-02-13T20:37:43.295Z,7.60
2023-02-13T20:41:50.304Z,7.53
2023-02-13T20:45:56.840Z,5.90
2023-02-13T20:49:59.507Z,8.20
2023-02-13T20:54:02.177Z,7.97
2023-02-13T20:58:06.295Z,8.30
2023-02-13T21:02:11.165Z,9.00
2023-02-13T21:06:13.760Z,9.43
2023-02-13T21:10:16.576Z,7.47
2023-02-13T21:14:20.711Z,4.47
2023-02-13T21:18:23.361Z,7.75
2023-02-13T21:22:26.065Z,6.68
2023-02-13T21:26:29.880Z,5.93
2023-02-13T21:30:34.051Z,6.95
2023-02-13T21:34:36.686Z,6.68
2023-02-13T21:38:40.970Z,7.82
2023-02-13T21:42:43.641Z,8.65
2023-02-13T21:46:47.820Z,6.53
2023-02-13T21:50:50.487Z,7.55
2023-02-13T21:54:53.090Z,3.80
2023-02-13T21:58:56.526Z,8.77
2023-02-13T22:03:00.589Z,6.20
2023-02-13T22:07:03.262Z,4.65
2023-02-13T22:11:07.640Z,7.85
2023-02-13T22:15:10.677Z,5.28
2023-02-13T22:19:16.678Z,5.15
2023-02-13T22:23:19.292Z,4.70
2023-02-13T22:27:21.895Z,6.85
2023-02-13T22:31:25.968Z,6.10
2023-02-13T22:35:30.078Z,6.72
2023-02-13T22:39:32.704Z,5.88
2023-02-13T22:43:35.395Z,4.55
2023-02-13T22:47:38.001Z,6.47
2023-02-13T22:51:41.977Z,5.13
2023-02-13T22:55:44.669Z,3.08
2023-02-13T22:59:47.269Z,5.95
2023-02-13T23:03:50.296Z,6.95
2023-02-13T23:07:54.264Z,6.50
2023-02-13T23:12:14.773Z,10.95
2023-02-13T23:16:17.668Z,6.90
2023-02-13T23:20:21.335Z,3.97
2023-02-13T23:24:25.302Z,6.07
2023-02-13T23:28:27.934Z,4.57
2023-02-13T23:32:30.524Z,7.30
2023-02-13T23:36:33.308Z,8.48
2023-02-13T23:40:37.257Z,6.30
2023-02-13T23:44:39.870Z,6.22
2023-02-13T23:48:42.521Z,5.90
2023-02-13T23:52:45.142Z,4.93
2023-02-13T23:56:50.506Z,6.00
